createdAt,value
2023-04-09T00:00:34.818Z,68.73
2023-04-09T00:05:58.253Z,63.10
2023-04-09T00:11:01.649Z,53.43
2023-04-09T00:16:05.430Z,53.40
2023-04-09T00:21:08.993Z,54.56
2023-04-09T00:26:12.314Z,56.62
2023-04-09T00:31:16.353Z,57.57
2023-04-09T00:36:19.546Z,58.70
2023-04-09T00:41:22.941Z,60.14
2023-04-09T00:46:26.563Z,67.68
2023-04-09T00:51:29.932Z,64.35
2023-04-09T00:56:33.563Z,55.14
2023-04-09T01:01:36.784Z,53.81
2023-04-09T01:07:13.875Z,55.07
2023-04-09T01:12:29.058Z,56.24
2023-04-09T01:17:56.631Z,57.90
2023-04-09T01:23:35.535Z,59.02
2023-04-09T01:28:41.649Z,59.90
2023-04-09T01:33:46.820Z,61.19
2023-04-09T02:03:30.181Z,54.58
2023-04-09T02:40:32.749Z,52.53
2023-04-09T02:45:42.622Z,53.57
2023-04-09T02:57:58.477Z,56.43
2023-04-09T03:03:23.290Z,58.06
2023-04-09T03:16:48.033Z,60.12
2023-04-09T03:36:33.670Z,52.13
2023-04-09T04:01:59.672Z,57.99
2023-04-09T04:08:00.205Z,59.33
2023-04-09T04:14:13.841Z,60.32
2023-04-09T04:43:04.224Z,54.78
2023-04-09T04:48:07.751Z,55.75
2023-04-09T04:53:25.131Z,57.07
2023-04-09T04:58:47.936Z,58.23
2023-04-09T05:04:25.969Z,59.19
2023-04-09T05:23:13.428Z,55.65
2023-04-09T05:48:27.866Z,57.93
2023-04-09T05:54:15.866Z,59.67
2023-04-09T06:00:16.211Z,60.36
2023-04-09T06:06:11.044Z,69.50
2023-04-09T06:36:15.122Z,56.18
2023-04-09T06:42:24.827Z,58.62
2023-04-09T06:47:38.581Z,59.49
2023-04-09T06:52:42.160Z,60.31
2023-04-09T06:57:45.452Z,61.17
2023-04-09T07:02:49.474Z,68.30
2023-04-09T07:07:53.036Z,63.62
2023-04-09T07:12:56.363Z,53.67
2023-04-09T07:18:00.229Z,52.65
2023-04-09T07:23:03.855Z,54.08
2023-04-09T07:28:07.107Z,55.19
2023-04-09T07:33:10.536Z,56.08
2023-04-09T07:38:20.947Z,57.21
2023-04-09T07:43:24.528Z,58.04
2023-04-09T07:48:30.089Z,59.13
2023-04-09T07:53:33.647Z,59.27
2023-04-09T07:58:43.610Z,59.41
2023-04-09T08:03:48.229Z,59.36
2023-04-09T08:08:53.676Z,59.51
2023-04-09T08:13:57.450Z,59.08
2023-04-09T08:19:00.570Z,59.79
2023-04-09T08:24:05.708Z,59.51
2023-04-09T08:29:15.636Z,59.51
2023-04-09T08:34:48.653Z,59.11
2023-04-09T08:43:11.431Z,58.67
2023-04-09T08:48:18.879Z,58.85
2023-04-09T08:53:23.712Z,58.60
2023-04-09T08:58:26.794Z,58.68
2023-04-09T09:03:29.853Z,58.62
2023-04-09T09:08:33.066Z,58.73
2023-04-09T09:13:36.165Z,58.97
2023-04-09T09:18:43.945Z,58.34
2023-04-09T09:23:48.533Z,58.31
2023-04-09T09:28:52.598Z,58.58
2023-04-09T09:33:56.549Z,58.40
2023-04-09T09:43:02.327Z,58.38
2023-04-09T09:48:06.261Z,58.13
2023-04-09T09:53:11.949Z,58.22
2023-04-09T09:58:39.050Z,57.69
2023-04-09T10:03:44.465Z,57.06
2023-04-09T10:08:49.884Z,56.34
2023-04-09T10:13:59.604Z,56.74
2023-04-09T10:19:03.606Z,55.90
2023-04-09T10:24:09.381Z,55.43
2023-04-09T10:29:14.952Z,54.90
2023-04-09T10:34:21.633Z,54.61
2023-04-09T10:39:30.172Z,54.77
2023-04-09T10:44:36.276Z,54.81
2023-04-09T10:49:42.707Z,54.11
2023-04-09T10:54:47.532Z,54.14
2023-04-09T10:59:53.433Z,54.07
2023-04-09T11:05:07.131Z,53.99
2023-04-09T11:10:17.037Z,54.03
2023-04-09T11:15:21.353Z,54.44
2023-04-09T11:20:26.356Z,54.00
2023-04-09T11:42:57.091Z,54.45
2023-04-09T11:48:02.586Z,52.80
2023-04-09T11:53:29.889Z,52.69
2023-04-09T11:58:35.272Z,53.53
2023-04-09T12:03:42.021Z,53.69
2023-04-09T12:08:59.614Z,53.13
2023-04-09T12:19:34.682Z,53.05
2023-04-09T12:24:42.098Z,53.10
2023-04-09T12:29:49.779Z,53.74
2023-04-09T12:42:21.373Z,52.38
2023-04-09T12:47:57.805Z,51.74
2023-04-09T12:53:19.767Z,51.84
2023-04-09T12:59:31.891Z,52.52
2023-04-09T13:04:45.328Z,52.10
2023-04-09T13:09:53.047Z,51.51
2023-04-09T13:15:12.332Z,51.07
2023-04-09T13:20:51.955Z,51.15
2023-04-09T13:26:45.689Z,51.49
2023-04-09T13:32:16.656Z,51.84
2023-04-09T13:43:09.893Z,51.38
2023-04-09T13:48:15.553Z,51.85
2023-04-09T13:53:20.671Z,51.64
2023-04-09T13:58:24.359Z,51.65
2023-04-09T14:03:28.024Z,50.76
2023-04-09T14:08:31.753Z,50.21
2023-04-09T14:13:35.455Z,50.02
2023-04-09T14:18:40.242Z,50.31
2023-04-09T14:23:44.421Z,50.25
2023-04-09T14:28:48.364Z,49.80
2023-04-09T14:33:53.256Z,50.17
2023-04-09T14:38:58.058Z,50.48
2023-04-09T14:44:01.584Z,52.20
2023-04-09T14:49:05.800Z,50.91
2023-04-09T14:54:09.682Z,50.34
2023-04-09T14:59:13.227Z,50.13
2023-04-09T15:04:19.934Z,50.10
2023-04-09T15:09:23.524Z,49.91
2023-04-09T15:14:29.946Z,50.23
2023-04-09T15:19:45.449Z,50.44
2023-04-09T15:24:52.002Z,51.42
2023-04-09T15:29:55.954Z,51.95
2023-04-09T15:35:00.949Z,52.16
2023-04-09T15:40:05.006Z,52.76
2023-04-09T15:45:08.809Z,52.44
2023-04-09T15:50:12.949Z,52.53
2023-04-09T15:55:17.034Z,52.48
2023-04-09T16:00:23.824Z,52.39
2023-04-09T16:05:27.574Z,52.15
2023-04-09T16:10:31.354Z,52.19
2023-04-09T16:15:35.600Z,52.41
2023-04-09T16:20:39.318Z,52.56
2023-04-09T16:25:42.800Z,52.54
2023-04-09T16:30:50.974Z,53.08
2023-04-09T16:36:00.971Z,53.81
2023-04-09T16:41:04.872Z,53.47
2023-04-09T16:46:10.964Z,53.66
2023-04-09T16:51:14.778Z,53.75
2023-04-09T16:56:18.321Z,53.97
2023-04-09T17:01:21.964Z,54.29
2023-04-09T17:06:28.407Z,54.51
2023-04-09T17:11:32.914Z,54.82
2023-04-09T17:16:38.291Z,54.72
2023-04-09T17:21:45.878Z,54.87
2023-04-09T17:26:50.409Z,55.06
2023-04-09T17:31:54.411Z,55.23
2023-04-09T17:37:01.391Z,55.68
2023-04-09T17:42:09.124Z,56.24
2023-04-09T17:47:13.305Z,56.42
2023-04-09T17:52:25.213Z,56.72
2023-04-09T17:57:29.306Z,56.90
2023-04-09T18:02:37.423Z,57.35
2023-04-09T18:07:42.594Z,57.54
2023-04-09T18:12:59.023Z,57.68
2023-04-09T18:18:09.975Z,58.00
2023-04-09T18:23:33.321Z,57.89
2023-04-09T18:28:37.718Z,57.93
2023-04-09T18:33:41.531Z,58.23
2023-04-09T18:38:49.519Z,58.38
2023-04-09T18:43:57.881Z,58.69
2023-04-09T18:49:02.444Z,58.94
2023-04-09T18:54:11.910Z,59.12
2023-04-09T18:59:16.915Z,59.44
2023-04-09T19:04:21.041Z,59.82
2023-04-09T19:09:28.089Z,60.11
2023-04-09T19:14:37.366Z,60.14
2023-04-09T19:19:41.366Z,60.26
2023-04-09T19:25:33.576Z,60.67
2023-04-09T19:30:23.886Z,60.62
2023-04-09T19:43:09.900Z,61.39
2023-04-09T19:48:24.286Z,61.53
2023-04-09T22:05:34.879Z,53.23
2023-04-09T22:10:39.323Z,54.41
2023-04-09T22:15:43.711Z,55.98
2023-04-09T22:21:22.716Z,56.95
2023-04-09T22:26:41.295Z,57.87
2023-04-09T22:31:46.104Z,58.83
2023-04-09T22:36:51.084Z,59.72
2023-04-09T22:43:01.838Z,60.70
2023-04-09T22:48:07.763Z,61.03
2023-04-09T22:53:11.960Z,61.31
2023-04-09T22:58:16.061Z,60.82
2023-04-09T23:03:20.192Z,61.77
2023-04-09T23:08:24.213Z,68.29
2023-04-09T23:13:28.506Z,64.43
2023-04-09T23:18:32.404Z,54.44
2023-04-09T23:23:37.341Z,53.37
2023-04-09T23:28:41.379Z,54.33
2023-04-09T23:33:45.526Z,55.30
2023-04-09T23:39:04.037Z,56.34
2023-04-09T23:44:07.909Z,57.78
2023-04-09T23:49:12.163Z,58.59
2023-04-09T23:54:18.709Z,59.42
2023-04-09T23:59:23.055Z,60.00
